createdAt,value
2022-08-03T00:02:45.322Z,3.5
2022-08-03T00:07:27.532Z,3.4
2022-08-03T00:12:09.849Z,3
2022-08-03T00:16:52.147Z,3.1
2022-08-03T00:21:34.354Z,2.8
2022-08-03T00:26:16.663Z,3.9
2022-08-03T00:30:58.970Z,3.2
2022-08-03T00:35:41.279Z,3.8
2022-08-03T00:40:23.486Z,3.8
2022-08-03T00:45:04.799Z,4.19
2022-08-03T00:49:47.107Z,3.5
2022-08-03T00:54:29.417Z,3.1
2022-08-03T00:59:11.622Z,3.1
2022-08-03T01:03:53.939Z,3.9
2022-08-03T01:08:36.237Z,3.8
2022-08-03T01:13:18.447Z,3.7
2022-08-03T01:18:00.753Z,3.7
2022-08-03T01:22:43.074Z,3.8
2022-08-03T01:27:25.273Z,4
2022-08-03T01:32:07.576Z,3.9
2022-08-03T01:36:49.887Z,4.4
2022-08-03T01:41:32.197Z,4.19
2022-08-03T01:46:13.402Z,4.4
2022-08-03T01:50:55.709Z,4.8
2022-08-03T01:55:38.016Z,4.69
2022-08-03T02:00:20.328Z,4.1
2022-08-03T02:05:02.553Z,4.3
2022-08-03T02:09:44.839Z,3.8
2022-08-03T02:14:27.148Z,4.69
2022-08-03T02:19:09.365Z,4.8
2022-08-03T02:23:51.665Z,4.19
2022-08-03T02:28:33.994Z,4.9
2022-08-03T02:33:16.282Z,4.1
2022-08-03T02:37:58.491Z,4.6
2022-08-03T02:42:40.800Z,4.6
2022-08-03T02:47:22.105Z,4.1
2022-08-03T02:52:04.424Z,4.6
2022-08-03T02:56:46.622Z,4.3
2022-08-03T03:01:28.929Z,4.5
2022-08-03T03:06:11.278Z,4.1
2022-08-03T03:10:53.452Z,4.4
2022-08-03T03:15:35.751Z,4.69
2022-08-03T03:20:18.060Z,5.2
2022-08-03T03:25:00.277Z,3.6
2022-08-03T03:29:42.575Z,4
2022-08-03T03:34:24.887Z,4.5
2022-08-03T03:39:07.198Z,4.1
2022-08-03T03:43:49.404Z,4.4
2022-08-03T03:48:30.747Z,4.19
2022-08-03T03:53:13.023Z,4.69
2022-08-03T03:57:55.323Z,4.9
2022-08-03T04:02:37.533Z,4.4
2022-08-03T04:07:19.852Z,4.19
2022-08-03T04:12:02.150Z,5.1
2022-08-03T04:16:44.358Z,4.5
2022-08-03T04:21:26.665Z,4.3
2022-08-03T04:26:08.970Z,4.19
2022-08-03T04:30:51.276Z,4.4
2022-08-03T04:35:33.509Z,4.1
2022-08-03T04:40:15.808Z,5.4
2022-08-03T04:44:58.109Z,4.9
2022-08-03T04:49:39.421Z,4.6
2022-08-03T04:54:21.623Z,4.9
2022-08-03T04:59:03.934Z,4.4
2022-08-03T05:03:46.234Z,4.8
2022-08-03T05:08:28.455Z,5.3
2022-08-03T05:13:10.751Z,4.8
2022-08-03T05:17:53.058Z,4.8
2022-08-03T05:22:35.370Z,4.69
2022-08-03T05:27:17.574Z,4.1
2022-08-03T05:36:42.197Z,4
2022-08-03T05:41:24.398Z,4.69
2022-08-03T05:46:06.709Z,3.8
2022-08-03T05:50:48.015Z,4.9
2022-08-03T05:55:30.328Z,6.7
2022-08-03T06:00:12.535Z,7.6
2022-08-03T06:04:54.842Z,4.6
2022-08-03T06:09:37.151Z,3.9
2022-08-03T06:14:19.359Z,5.7
2022-08-03T06:19:01.670Z,3.2
2022-08-03T06:23:43.988Z,4
2022-08-03T06:28:26.327Z,4.9
2022-08-03T06:33:08.494Z,3.7
2022-08-03T06:37:50.804Z,7.8
2022-08-03T06:42:33.138Z,3.2
2022-08-03T06:47:15.337Z,1.8
2022-08-03T06:51:56.632Z,2.4
2022-08-03T06:56:38.937Z,2.3
2022-08-03T07:01:21.242Z,2.09
2022-08-03T07:06:03.448Z,1.9
2022-08-03T07:10:45.759Z,2.6
2022-08-03T07:15:28.065Z,2
2022-08-03T07:20:10.277Z,2
2022-08-03T07:24:52.584Z,1.9
2022-08-03T07:29:34.892Z,1.4
2022-08-03T07:34:17.197Z,1.5
2022-08-03T07:38:59.409Z,1.5
2022-08-03T07:43:41.716Z,1.8
2022-08-03T07:48:24.028Z,1.9
2022-08-03T07:53:05.333Z,2.3
2022-08-03T07:57:47.540Z,1.9
2022-08-03T08:02:29.851Z,1.4
2022-08-03T08:07:12.160Z,2
2022-08-03T08:11:54.366Z,1.2
2022-08-03T08:16:36.673Z,1.1
2022-08-03T08:21:18.979Z,1.1
2022-08-03T08:26:01.302Z,1.2
2022-08-03T08:30:43.500Z,1.2
2022-08-03T08:35:25.806Z,1.4
2022-08-03T08:40:08.112Z,1.3
2022-08-03T08:44:50.330Z,1.2
2022-08-03T08:49:32.631Z,0.6
2022-08-03T08:54:13.941Z,0.9
2022-08-03T08:58:56.246Z,1.3
2022-08-03T09:03:38.457Z,1.2
2022-08-03T09:08:20.762Z,0.9
2022-08-03T09:13:03.072Z,0.7
2022-08-03T09:17:45.280Z,1.5
2022-08-03T09:22:27.583Z,0.4
2022-08-03T09:27:09.919Z,0.5
2022-08-03T09:31:52.200Z,0.6
2022-08-03T09:36:34.412Z,0.6
2022-08-03T09:41:16.726Z,0.9
2022-08-03T09:45:59.029Z,0.8
2022-08-03T09:50:41.239Z,0.8
2022-08-03T09:55:22.545Z,1.1
2022-08-03T10:00:04.877Z,0.8
2022-08-03T10:04:47.165Z,0.5
2022-08-03T10:09:52.577Z,0.8
2022-08-03T10:14:11.670Z,0.9
2022-08-03T10:18:53.979Z,1.4
2022-08-03T10:23:36.296Z,0.7
2022-08-03T10:28:18.503Z,0.8
2022-08-03T10:33:00.827Z,0.8
2022-08-03T10:37:43.124Z,0.7
2022-08-03T10:42:25.424Z,0.5
2022-08-03T10:47:07.654Z,0.6
2022-08-03T10:51:49.941Z,1.5
2022-08-03T10:56:31.249Z,0.7
2022-08-03T11:05:55.868Z,0.5
2022-08-03T11:10:38.200Z,0.5
2022-08-03T11:15:20.388Z,0.3
2022-08-03T11:20:02.695Z,0.4
2022-08-03T11:24:45.021Z,0.4
2022-08-03T11:29:27.316Z,0.3
2022-08-03T11:34:09.625Z,0.4
2022-08-03T11:38:51.831Z,0.5
2022-08-03T11:43:34.167Z,0.6
2022-08-03T11:48:16.455Z,0.5
2022-08-03T11:52:58.766Z,0.2
2022-08-03T11:57:40.074Z,0.5
2022-08-03T12:02:22.381Z,0.4
2022-08-03T12:07:04.688Z,0.5
2022-08-03T12:11:46.900Z,0.3
2022-08-03T12:16:29.215Z,0.6
2022-08-03T12:21:11.519Z,0.3
2022-08-03T12:25:52.827Z,0.4
2022-08-03T12:30:35.156Z,0.3
2022-08-03T12:35:17.441Z,0.4
2022-08-03T12:39:59.662Z,0.4
2022-08-03T12:44:41.965Z,0.4
2022-08-03T12:49:24.275Z,0.4
2022-08-03T12:54:06.599Z,0.3
2022-08-03T12:58:48.887Z,0.1
2022-08-03T13:03:31.103Z,0.2
2022-08-03T13:08:13.432Z,0.5
2022-08-03T13:12:55.763Z,0.4
2022-08-03T13:17:38.037Z,0.5
2022-08-03T13:22:20.354Z,0.5
2022-08-03T13:27:01.608Z,0.7
2022-08-03T13:31:43.910Z,0.3
2022-08-03T13:36:26.223Z,0.3
2022-08-03T13:41:08.535Z,0.4
2022-08-03T13:45:50.749Z,0.7
2022-08-03T13:50:33.064Z,0.4
2022-08-03T13:55:15.379Z,0.5
2022-08-03T13:59:57.668Z,0.4
2022-08-03T14:04:39.972Z,0.3
2022-08-03T14:09:22.181Z,0.4
2022-08-03T14:14:04.688Z,0.3
2022-08-03T14:18:46.814Z,0.3
2022-08-03T14:23:29.113Z,1.4
2022-08-03T14:28:10.425Z,0.4
2022-08-03T14:32:52.731Z,0.5
2022-08-03T14:37:34.938Z,0.4
2022-08-03T14:42:17.250Z,0.7
2022-08-03T14:46:59.552Z,0.9
2022-08-03T14:51:41.862Z,0.5
2022-08-03T14:56:24.172Z,0.2
2022-08-03T15:01:06.384Z,0.3
2022-08-03T15:05:48.690Z,0.5
2022-08-03T15:10:30.998Z,0.3
2022-08-03T15:15:13.305Z,0.6
2022-08-03T15:19:55.614Z,0.8
2022-08-03T15:24:37.832Z,0.5
2022-08-03T15:29:19.133Z,0.4
2022-08-03T15:34:01.444Z,0.5
2022-08-03T15:38:43.750Z,0.4
2022-08-03T15:43:26.069Z,0.7
2022-08-03T15:48:08.279Z,1.2
2022-08-03T15:52:50.576Z,0.7
2022-08-03T15:57:32.880Z,0.5
2022-08-03T16:02:15.198Z,0.6
2022-08-03T16:06:57.407Z,0.7
2022-08-03T16:11:39.708Z,0.5
2022-08-03T16:16:22.021Z,0.4
2022-08-03T16:21:04.344Z,0.6
2022-08-03T16:25:46.538Z,0.5
2022-08-03T16:30:27.837Z,0.6
2022-08-03T16:35:10.153Z,0.8
2022-08-03T16:39:52.465Z,0.5
2022-08-03T16:44:34.765Z,0.6
2022-08-03T16:49:16.974Z,0.9
2022-08-03T16:53:59.279Z,0.8
2022-08-03T16:58:41.623Z,0.3
2022-08-03T17:03:23.914Z,0.7
2022-08-03T17:08:06.236Z,0.7
2022-08-03T17:12:48.423Z,0.8
2022-08-03T17:17:30.741Z,0.3
2022-08-03T17:22:13.095Z,0.4
2022-08-03T17:26:55.348Z,0.8
2022-08-03T17:31:36.650Z,0.7
2022-08-03T17:36:18.863Z,0.7
2022-08-03T17:41:01.187Z,0.6
2022-08-03T17:45:43.473Z,0.8
2022-08-03T17:50:25.781Z,0.8
2022-08-03T17:55:07.988Z,0.9
2022-08-03T17:59:50.322Z,1.4
2022-08-03T18:04:32.651Z,0.8
2022-08-03T18:09:14.835Z,0.6
2022-08-03T18:13:57.137Z,0.8
2022-08-03T18:18:39.466Z,1.1
2022-08-03T18:23:21.759Z,1.1
2022-08-03T18:28:03.953Z,1
2022-08-03T18:32:45.275Z,1
2022-08-03T18:37:27.615Z,1.4
2022-08-03T18:42:09.922Z,1
2022-08-03T18:46:52.079Z,1.3
2022-08-03T18:51:34.439Z,1.2
2022-08-03T18:56:16.702Z,0.8
2022-08-03T19:00:59.018Z,1.3
2022-08-03T19:05:41.231Z,1.1
2022-08-03T19:10:23.517Z,0.8
2022-08-03T19:15:05.870Z,1.5
2022-08-03T19:19:48.048Z,1.1
2022-08-03T19:24:30.365Z,1.3
2022-08-03T19:29:12.659Z,1.1
2022-08-03T19:33:53.985Z,0.9
2022-08-03T19:38:36.218Z,1
2022-08-03T19:43:18.491Z,1.6
2022-08-03T19:48:00.802Z,1
2022-08-03T19:52:43.122Z,1.1
2022-08-03T19:57:25.327Z,0.8
2022-08-03T20:02:07.628Z,1.3
2022-08-03T20:06:49.918Z,1.1
2022-08-03T20:11:32.153Z,1.4
2022-08-03T20:16:14.436Z,1
2022-08-03T20:20:56.747Z,1.5
2022-08-03T20:25:39.005Z,1.3
2022-08-03T20:30:21.269Z,1.3
2022-08-03T20:35:02.576Z,1.1
2022-08-03T20:39:44.882Z,1.2
2022-08-03T20:44:27.082Z,0.9
2022-08-03T20:49:09.403Z,1.3
2022-08-03T20:53:51.731Z,0.8
2022-08-03T20:58:33.994Z,1.1
2022-08-03T21:03:16.305Z,1.6
2022-08-03T21:08:03.667Z,1.4
2022-08-03T21:12:40.810Z,1.4
2022-08-03T21:17:23.095Z,1.2
2022-08-03T21:22:05.422Z,1.6
2022-08-03T21:26:47.622Z,2
2022-08-03T21:31:29.969Z,1.5
2022-08-03T21:36:11.223Z,1.6
2022-08-03T21:40:53.541Z,1.8
2022-08-03T21:45:35.745Z,1.8
2022-08-03T21:50:18.059Z,1.3
2022-08-03T21:55:00.366Z,1.4
2022-08-03T21:59:42.593Z,1.6
2022-08-03T22:04:24.885Z,1.5
2022-08-03T22:09:07.198Z,1.9
2022-08-03T22:13:49.497Z,2.3
2022-08-03T22:18:31.711Z,1.5
2022-08-03T22:23:14.019Z,1.9
2022-08-03T22:27:56.323Z,1.7
2022-08-03T22:32:38.528Z,1.7
2022-08-03T22:37:19.834Z,1.5
2022-08-03T22:42:02.105Z,1.8
2022-08-03T22:46:44.406Z,1.7
2022-08-03T22:51:26.707Z,1.7
2022-08-03T22:56:09.019Z,1.5
2022-08-03T23:00:51.229Z,1.3
2022-08-03T23:05:33.531Z,1.9
2022-08-03T23:10:15.841Z,1.6
2022-08-03T23:14:58.049Z,1.7
2022-08-03T23:19:40.371Z,1.4
2022-08-03T23:24:22.667Z,1.5
2022-08-03T23:29:04.872Z,2.5
2022-08-03T23:33:47.183Z,2
2022-08-03T23:38:28.492Z,1.6
2022-08-03T23:43:10.799Z,1.8
2022-08-03T23:47:53.019Z,2
2022-08-03T23:52:35.312Z,1.5
2022-08-03T23:57:17.590Z,1.7
